createdAt,value
2023-03-07T00:01:57.515Z,4.40
2023-03-07T00:04:46.006Z,4.50
2023-03-07T00:07:33.960Z,4.10
2023-03-07T00:10:21.296Z,4.40
2023-03-07T00:13:15.859Z,4.50
2023-03-07T00:16:04.594Z,4.50
2023-03-07T00:18:53.808Z,4.20
2023-03-07T00:21:41.251Z,4.40
2023-03-07T00:24:34.063Z,7.20
2023-03-07T00:27:21.886Z,4.40
2023-03-07T00:30:12.558Z,4.50
2023-03-07T00:33:00.685Z,4.40
2023-03-07T00:36:00.896Z,4.40
2023-03-07T00:38:48.910Z,4.40
2023-03-07T00:41:36.989Z,4.40
2023-03-07T00:44:30.245Z,4.40
2023-03-07T00:47:20.339Z,4.40
2023-03-07T00:50:08.365Z,4.40
2023-03-07T00:52:57.352Z,4.60
2023-03-07T00:55:54.358Z,4.50
2023-03-07T00:58:42.614Z,4.60
2023-03-07T01:01:30.235Z,4.40
2023-03-07T01:04:18.150Z,4.50
2023-03-07T01:07:06.100Z,4.80
2023-03-07T01:09:54.897Z,4.60
2023-03-07T01:12:43.807Z,3.70
2023-03-07T01:15:33.375Z,4.50
2023-03-07T01:18:20.950Z,4.50
2023-03-07T01:21:13.459Z,4.50
2023-03-07T01:24:04.507Z,4.40
2023-03-07T01:26:53.836Z,4.50
2023-03-07T01:29:45.612Z,4.50
2023-03-07T01:32:33.812Z,4.50
2023-03-07T01:35:24.241Z,4.40
2023-03-07T01:38:13.879Z,4.40
2023-03-07T01:41:05.241Z,6.80
2023-03-07T01:43:54.151Z,4.40
2023-03-07T01:47:00.784Z,4.40
2023-03-07T01:49:59.349Z,4.10
2023-03-07T01:52:49.682Z,4.20
2023-03-07T01:55:38.125Z,4.40
2023-03-07T01:58:33.935Z,4.40
2023-03-07T02:01:24.453Z,5.80
2023-03-07T02:04:15.069Z,4.40
2023-03-07T02:07:06.770Z,4.50
2023-03-07T02:09:54.879Z,4.50
2023-03-07T02:12:42.939Z,4.70
2023-03-07T02:15:31.584Z,4.40
2023-03-07T02:18:22.168Z,4.30
2023-03-07T02:21:18.163Z,4.30
2023-03-07T02:24:09.623Z,4.30
2023-03-07T02:26:59.085Z,4.30
2023-03-07T02:29:47.180Z,4.40
2023-03-07T02:32:34.796Z,4.30
2023-03-07T02:35:23.141Z,4.30
2023-03-07T02:38:13.219Z,4.00
2023-03-07T02:41:02.635Z,4.30
2023-03-07T02:43:56.813Z,4.40
2023-03-07T02:46:47.518Z,4.20
2023-03-07T02:49:38.396Z,4.80
2023-03-07T02:52:28.252Z,2.80
2023-03-07T02:55:16.485Z,4.20
2023-03-07T02:58:10.218Z,4.20
2023-03-07T03:01:01.571Z,4.00
2023-03-07T03:03:50.449Z,4.10
2023-03-07T03:06:39.918Z,4.30
2023-03-07T03:09:27.413Z,4.20
2023-03-07T03:12:17.042Z,4.20
2023-03-07T03:15:05.548Z,4.00
2023-03-07T03:17:55.974Z,4.10
2023-03-07T03:20:44.624Z,4.00
2023-03-07T03:23:32.979Z,4.10
2023-03-07T03:26:26.431Z,4.20
2023-03-07T03:29:15.159Z,4.20
2023-03-07T03:32:03.338Z,4.20
2023-03-07T03:34:52.586Z,5.20
2023-03-07T03:37:40.431Z,4.20
2023-03-07T03:40:27.865Z,4.20
2023-03-07T03:43:15.877Z,4.20
2023-03-07T03:46:03.843Z,4.30
2023-03-07T03:48:54.836Z,4.20
2023-03-07T03:51:47.205Z,4.20
2023-03-07T03:54:35.157Z,4.20
2023-03-07T03:57:23.005Z,4.20
2023-03-07T04:00:14.444Z,5.50
2023-03-07T04:03:02.694Z,4.30
2023-03-07T04:05:50.528Z,4.20
2023-03-07T04:08:40.395Z,4.30
2023-03-07T04:11:28.111Z,4.30
2023-03-07T04:14:17.235Z,4.30
2023-03-07T04:17:04.681Z,4.40
2023-03-07T04:19:52.107Z,4.30
2023-03-07T04:22:39.932Z,4.30
2023-03-07T04:25:29.040Z,4.30
2023-03-07T04:28:16.872Z,4.30
2023-03-07T04:31:04.197Z,4.30
2023-03-07T04:33:52.452Z,4.80
2023-03-07T04:36:41.465Z,4.70
2023-03-07T04:39:28.882Z,4.30
2023-03-07T04:42:21.031Z,4.40
2023-03-07T04:45:09.504Z,4.30
2023-03-07T04:47:57.148Z,4.40
2023-03-07T04:50:45.595Z,4.40
2023-03-07T04:53:32.992Z,4.40
2023-03-07T04:56:23.135Z,4.30
2023-03-07T04:59:12.477Z,4.30
2023-03-07T05:02:03.823Z,4.30
2023-03-07T05:04:52.533Z,4.40
2023-03-07T05:07:39.912Z,3.10
2023-03-07T05:10:27.940Z,4.30
2023-03-07T05:13:16.024Z,4.20
2023-03-07T05:16:05.865Z,4.20
2023-03-07T05:18:53.719Z,4.20
2023-03-07T05:21:41.995Z,4.30
2023-03-07T05:24:38.594Z,3.10
2023-03-07T05:27:29.411Z,4.30
2023-03-07T05:30:17.670Z,4.40
2023-03-07T05:33:06.982Z,4.50
2023-03-07T05:35:55.721Z,4.50
2023-03-07T05:38:44.102Z,4.30
2023-03-07T05:41:32.063Z,4.30
2023-03-07T05:44:22.746Z,4.70
2023-03-07T05:47:10.451Z,4.40
2023-03-07T05:50:00.059Z,4.20
2023-03-07T05:52:48.100Z,4.30
2023-03-07T05:55:35.737Z,4.30
2023-03-07T05:58:23.126Z,5.10
2023-03-07T06:01:10.679Z,4.30
2023-03-07T06:03:59.527Z,4.30
2023-03-07T06:06:48.423Z,4.40
2023-03-07T06:09:35.901Z,4.50
2023-03-07T06:12:23.866Z,4.30
2023-03-07T06:15:11.448Z,4.40
2023-03-07T06:17:59.103Z,4.40
2023-03-07T06:20:46.592Z,4.40
2023-03-07T06:23:39.942Z,4.20
2023-03-07T06:26:32.158Z,4.10
2023-03-07T06:29:19.498Z,4.10
2023-03-07T06:32:08.545Z,4.10
2023-03-07T06:34:57.965Z,4.20
2023-03-07T06:37:47.091Z,4.50
2023-03-07T06:40:36.119Z,4.20
2023-03-07T06:43:23.810Z,4.20
2023-03-07T06:46:11.712Z,4.30
2023-03-07T06:49:02.662Z,4.30
2023-03-07T06:51:51.982Z,4.30
2023-03-07T06:54:40.245Z,4.50
2023-03-07T06:57:38.495Z,4.40
2023-03-07T07:00:31.303Z,3.70
2023-03-07T07:03:19.805Z,4.50
2023-03-07T07:06:07.407Z,4.40
2023-03-07T07:08:55.982Z,5.30
2023-03-07T07:11:45.775Z,3.10
2023-03-07T07:14:47.398Z,6.90
2023-03-07T07:17:39.109Z,4.40
2023-03-07T07:20:29.323Z,4.50
2023-03-07T07:23:16.819Z,4.50
2023-03-07T07:26:09.568Z,4.40
2023-03-07T07:29:05.015Z,4.30
2023-03-07T07:31:56.928Z,4.40
2023-03-07T07:34:44.643Z,4.40
2023-03-07T07:37:32.316Z,4.50
2023-03-07T07:40:19.701Z,4.60
2023-03-07T07:43:08.277Z,4.40
2023-03-07T07:46:08.382Z,4.40
2023-03-07T07:49:00.904Z,4.40
2023-03-07T07:51:48.989Z,4.40
2023-03-07T07:54:36.376Z,4.40
2023-03-07T07:57:24.127Z,4.50
2023-03-07T08:00:13.506Z,4.40
2023-03-07T08:03:01.469Z,4.50
2023-03-07T08:05:52.988Z,4.50
2023-03-07T08:08:40.955Z,4.40
2023-03-07T08:11:31.370Z,4.40
2023-03-07T08:14:18.776Z,4.40
2023-03-07T08:17:08.812Z,4.50
2023-03-07T08:20:04.031Z,4.60
2023-03-07T08:22:54.574Z,4.50
2023-03-07T08:25:45.567Z,4.30
2023-03-07T08:28:33.456Z,4.50
2023-03-07T08:31:23.656Z,4.50
2023-03-07T08:34:12.008Z,7.30
2023-03-07T08:37:02.108Z,4.50
2023-03-07T08:39:53.719Z,4.30
2023-03-07T08:42:42.641Z,4.40
2023-03-07T08:45:35.531Z,4.40
2023-03-07T08:48:23.077Z,4.90
2023-03-07T08:51:15.532Z,4.40
2023-03-07T08:54:03.654Z,4.60
2023-03-07T08:56:54.080Z,4.40
2023-03-07T08:59:42.719Z,4.30
2023-03-07T09:02:30.291Z,4.50
2023-03-07T09:05:18.182Z,4.60
2023-03-07T09:08:09.689Z,4.60
2023-03-07T09:11:00.085Z,4.90
2023-03-07T09:13:52.917Z,4.90
2023-03-07T09:16:41.661Z,4.60
2023-03-07T09:19:31.262Z,4.70
2023-03-07T09:22:22.013Z,4.70
2023-03-07T09:25:12.192Z,4.80
2023-03-07T09:28:04.340Z,5.30
2023-03-07T09:30:55.280Z,4.90
2023-03-07T09:33:46.516Z,5.00
2023-03-07T09:36:34.597Z,4.80
2023-03-07T09:39:22.878Z,4.80
2023-03-07T09:42:21.020Z,4.60
2023-03-07T09:45:16.444Z,4.90
2023-03-07T09:48:38.772Z,4.80
2023-03-07T09:51:28.705Z,4.70
2023-03-07T09:54:18.425Z,4.80
2023-03-07T09:57:07.340Z,4.80
2023-03-07T09:59:56.782Z,4.80
2023-03-07T10:02:47.850Z,4.90
2023-03-07T10:05:39.447Z,5.00
2023-03-07T10:08:29.552Z,5.00
2023-03-07T10:11:24.901Z,5.10
2023-03-07T10:14:27.189Z,2.60
2023-03-07T10:17:20.548Z,7.70
2023-03-07T10:20:14.362Z,4.90
2023-03-07T10:23:09.376Z,5.10
2023-03-07T10:26:02.731Z,4.90
2023-03-07T10:28:54.253Z,4.90
2023-03-07T10:31:49.974Z,4.90
2023-03-07T10:34:47.563Z,4.90
2023-03-07T10:37:41.909Z,4.80
2023-03-07T10:40:33.187Z,4.70
2023-03-07T10:43:23.842Z,5.40
2023-03-07T10:46:24.778Z,4.90
2023-03-07T10:49:15.984Z,4.60
2023-03-07T10:52:06.000Z,4.60
2023-03-07T10:54:55.475Z,4.40
2023-03-07T10:57:44.601Z,4.30
2023-03-07T11:00:32.509Z,4.60
2023-03-07T11:03:28.042Z,4.40
2023-03-07T11:06:29.411Z,5.00
2023-03-07T11:09:18.386Z,5.00
2023-03-07T11:12:12.864Z,5.20
2023-03-07T11:15:12.594Z,5.30
2023-03-07T11:18:06.273Z,5.30
2023-03-07T11:20:56.766Z,5.30
2023-03-07T11:23:59.583Z,5.10
2023-03-07T11:26:48.005Z,5.00
2023-03-07T11:29:35.655Z,5.00
2023-03-07T11:32:25.927Z,5.00
2023-03-07T11:35:16.884Z,5.00
2023-03-07T11:38:08.046Z,4.90
2023-03-07T11:41:00.330Z,4.80
2023-03-07T11:43:56.223Z,4.70
2023-03-07T11:46:53.659Z,4.60
2023-03-07T11:49:46.633Z,4.70
2023-03-07T11:52:43.062Z,4.60
2023-03-07T11:55:36.762Z,4.60
2023-03-07T11:58:31.126Z,4.40
2023-03-07T12:01:21.122Z,4.20
2023-03-07T12:04:23.303Z,4.30
2023-03-07T12:07:21.036Z,4.30
2023-03-07T12:10:11.283Z,4.20
2023-03-07T12:13:08.018Z,4.10
2023-03-07T12:16:05.045Z,4.00
2023-03-07T12:19:05.923Z,4.00
2023-03-07T12:22:02.970Z,4.00
2023-03-07T12:25:00.389Z,4.20
2023-03-07T12:27:51.044Z,3.90
2023-03-07T12:30:47.514Z,4.00
2023-03-07T12:33:48.276Z,2.40
2023-03-07T12:36:40.135Z,4.00
2023-03-07T12:39:30.172Z,3.90
2023-03-07T12:42:24.721Z,3.90
2023-03-07T12:45:14.351Z,3.90
2023-03-07T12:48:08.181Z,4.00
2023-03-07T12:50:57.776Z,4.00
2023-03-07T12:53:49.294Z,3.90
2023-03-07T12:56:48.734Z,5.90
2023-03-07T12:59:44.465Z,4.10
2023-03-07T13:02:34.579Z,3.60
2023-03-07T13:05:28.089Z,4.40
2023-03-07T13:08:22.084Z,4.20
2023-03-07T13:11:18.559Z,4.00
2023-03-07T13:14:07.444Z,3.90
2023-03-07T13:16:56.456Z,4.10
2023-03-07T13:19:54.268Z,5.80
2023-03-07T13:22:59.705Z,4.00
2023-03-07T13:26:10.837Z,4.10
2023-03-07T13:28:59.151Z,3.90
2023-03-07T13:31:46.903Z,4.30
2023-03-07T13:34:51.727Z,4.10
2023-03-07T13:37:57.471Z,4.00
2023-03-07T13:40:55.063Z,4.00
2023-03-07T13:44:00.239Z,3.90
2023-03-07T13:46:55.306Z,3.90
2023-03-07T13:49:45.138Z,4.00
2023-03-07T13:52:38.741Z,4.10
2023-03-07T13:55:28.643Z,3.90
2023-03-07T13:58:25.382Z,3.80
2023-03-07T14:01:16.229Z,5.50
2023-03-07T14:04:07.373Z,3.90
2023-03-07T14:06:56.153Z,4.00
2023-03-07T14:09:48.122Z,3.90
2023-03-07T14:12:40.448Z,3.40
2023-03-07T14:15:30.877Z,3.60
2023-03-07T14:18:23.088Z,3.90
2023-03-07T14:21:16.355Z,4.10
2023-03-07T14:24:21.463Z,3.80
2023-03-07T14:27:13.217Z,4.10
2023-03-07T14:30:01.068Z,3.90
2023-03-07T14:32:52.254Z,4.70
2023-03-07T14:35:42.010Z,4.00
2023-03-07T14:38:35.037Z,2.60
2023-03-07T14:41:34.064Z,4.20
2023-03-07T14:44:39.314Z,7.10
2023-03-07T14:47:34.442Z,4.20
2023-03-07T14:50:31.104Z,4.10
2023-03-07T14:53:20.848Z,4.00
2023-03-07T14:56:10.442Z,4.00
2023-03-07T14:58:59.801Z,2.10
2023-03-07T15:01:50.745Z,4.00
2023-03-07T15:04:41.243Z,4.10
2023-03-07T15:07:31.462Z,4.30
2023-03-07T15:10:23.019Z,4.20
2023-03-07T15:13:22.385Z,4.20
2023-03-07T15:16:13.444Z,4.10
2023-03-07T15:19:03.696Z,4.20
2023-03-07T15:21:53.958Z,4.20
2023-03-07T15:24:54.149Z,4.70
2023-03-07T15:27:43.537Z,4.20
2023-03-07T15:30:33.593Z,4.20
2023-03-07T15:33:25.861Z,4.20
2023-03-07T15:36:21.743Z,4.60
2023-03-07T15:39:27.940Z,3.70
2023-03-07T15:42:21.656Z,4.20
2023-03-07T15:45:24.199Z,3.90
2023-03-07T15:48:19.131Z,3.30
2023-03-07T15:51:08.259Z,3.50
2023-03-07T15:54:00.326Z,3.20
2023-03-07T15:56:56.681Z,3.10
2023-03-07T15:59:49.104Z,3.00
2023-03-07T16:02:41.958Z,3.00
2023-03-07T16:05:39.017Z,2.80
2023-03-07T16:08:32.358Z,3.30
2023-03-07T16:11:20.783Z,2.80
2023-03-07T16:14:13.488Z,2.80
2023-03-07T16:17:06.526Z,2.90
2023-03-07T16:19:55.460Z,2.90
2023-03-07T16:22:59.776Z,2.90
2023-03-07T16:25:48.760Z,3.20
2023-03-07T16:28:37.270Z,2.90
2023-03-07T16:31:34.636Z,2.90
2023-03-07T16:34:23.004Z,2.00
2023-03-07T16:37:10.596Z,2.80
2023-03-07T16:40:04.699Z,2.70
2023-03-07T16:42:52.739Z,2.70
2023-03-07T16:45:40.825Z,2.60
2023-03-07T16:48:29.266Z,2.60
2023-03-07T16:51:18.080Z,2.60
2023-03-07T16:54:07.410Z,2.70
2023-03-07T16:57:00.771Z,2.70
2023-03-07T16:59:50.510Z,2.70
2023-03-07T17:02:38.475Z,3.10
2023-03-07T17:05:26.684Z,2.60
2023-03-07T17:08:14.711Z,2.70
2023-03-07T17:11:15.165Z,2.50
2023-03-07T17:14:05.346Z,2.60
2023-03-07T17:16:56.247Z,2.60
2023-03-07T17:19:44.122Z,5.50
2023-03-07T17:22:31.638Z,2.60
2023-03-07T17:25:19.439Z,2.70
2023-03-07T17:28:08.626Z,2.70
2023-03-07T17:30:57.732Z,2.70
2023-03-07T17:33:45.493Z,2.70
2023-03-07T17:36:33.744Z,2.60
2023-03-07T17:39:22.811Z,2.60
2023-03-07T17:42:10.332Z,2.50
2023-03-07T17:44:59.618Z,2.60
2023-03-07T17:47:54.164Z,2.70
2023-03-07T17:50:42.319Z,2.70
2023-03-07T17:53:30.068Z,2.60
2023-03-07T17:56:18.746Z,3.50
2023-03-07T17:59:06.404Z,2.60
2023-03-07T18:01:58.237Z,2.80
2023-03-07T18:04:52.889Z,2.60
2023-03-07T18:07:41.620Z,2.90
2023-03-07T18:10:34.724Z,2.90
2023-03-07T18:13:24.454Z,0.70
2023-03-07T18:16:32.064Z,3.10
2023-03-07T18:19:29.644Z,3.40
2023-03-07T18:22:23.908Z,2.70
2023-03-07T18:25:22.385Z,2.50
2023-03-07T18:28:14.229Z,2.60
2023-03-07T18:31:05.525Z,2.60
2023-03-07T18:33:54.095Z,2.50
2023-03-07T18:36:42.660Z,2.60
2023-03-07T18:39:33.529Z,2.50
2023-03-07T18:42:25.376Z,2.50
2023-03-07T18:45:13.483Z,2.60
2023-03-07T18:48:03.517Z,2.50
2023-03-07T18:50:56.638Z,2.50
2023-03-07T18:53:44.675Z,2.60
2023-03-07T18:56:34.545Z,3.90
2023-03-07T18:59:24.294Z,1.40
2023-03-07T19:02:11.941Z,2.00
2023-03-07T19:05:00.978Z,1.90
2023-03-07T19:07:48.770Z,1.80
2023-03-07T19:10:38.165Z,1.70
2023-03-07T19:13:27.182Z,1.70
2023-03-07T19:16:23.376Z,1.50
2023-03-07T19:19:11.300Z,1.60
2023-03-07T19:22:00.000Z,1.40
2023-03-07T19:24:48.001Z,1.60
2023-03-07T19:27:38.244Z,1.60
2023-03-07T19:30:29.185Z,1.60
2023-03-07T19:33:17.242Z,1.50
2023-03-07T19:36:05.917Z,1.50
2023-03-07T19:38:57.779Z,1.40
2023-03-07T19:41:50.477Z,1.40
2023-03-07T19:44:40.313Z,1.40
2023-03-07T19:47:29.854Z,1.30
2023-03-07T19:50:20.161Z,1.40
2023-03-07T19:53:09.229Z,1.60
2023-03-07T19:55:57.130Z,-0.50
2023-03-07T19:58:44.762Z,1.40
2023-03-07T20:01:33.126Z,1.40
2023-03-07T20:04:23.349Z,1.50
2023-03-07T20:07:11.250Z,1.50
2023-03-07T20:09:58.739Z,1.50
2023-03-07T20:12:47.737Z,1.50
2023-03-07T20:15:36.326Z,1.50
2023-03-07T20:18:24.715Z,1.50
2023-03-07T20:21:17.164Z,1.20
2023-03-07T20:24:05.222Z,1.40
2023-03-07T20:26:52.999Z,1.60
2023-03-07T20:29:43.424Z,1.50
2023-03-07T20:32:31.594Z,1.50
2023-03-07T20:35:20.264Z,1.50
2023-03-07T20:38:09.701Z,2.70
2023-03-07T20:41:00.682Z,1.60
2023-03-07T20:43:48.787Z,1.60
2023-03-07T20:46:36.938Z,1.60
2023-03-07T20:49:25.335Z,1.60
2023-03-07T20:52:12.814Z,1.60
2023-03-07T20:55:02.686Z,1.60
2023-03-07T20:57:53.667Z,1.60
2023-03-07T21:00:41.034Z,1.60
2023-03-07T21:03:29.145Z,1.60
2023-03-07T21:06:17.005Z,1.90
2023-03-07T21:09:07.158Z,2.00
2023-03-07T21:11:56.100Z,1.50
2023-03-07T21:14:43.473Z,1.50
2023-03-07T21:17:32.032Z,1.50
2023-03-07T21:20:20.324Z,1.50
2023-03-07T21:23:08.163Z,1.60
2023-03-07T21:26:03.933Z,1.50
2023-03-07T21:28:53.834Z,1.50
2023-03-07T21:31:41.775Z,2.30
2023-03-07T21:34:29.995Z,1.50
2023-03-07T21:37:18.305Z,1.50
2023-03-07T21:40:06.648Z,1.50
2023-03-07T21:42:54.510Z,1.50
2023-03-07T21:45:44.005Z,1.50
2023-03-07T21:48:32.311Z,1.50
2023-03-07T21:51:20.410Z,1.50
2023-03-07T21:54:08.067Z,1.60
2023-03-07T21:56:55.736Z,1.50
2023-03-07T21:59:43.584Z,1.50
2023-03-07T22:02:33.697Z,0.90
2023-03-07T22:05:23.516Z,1.50
2023-03-07T22:08:11.508Z,3.10
2023-03-07T22:11:00.653Z,1.60
2023-03-07T22:13:50.672Z,1.70
2023-03-07T22:16:38.838Z,1.60
2023-03-07T22:19:28.767Z,1.30
2023-03-07T22:22:16.904Z,1.70
2023-03-07T22:25:05.386Z,1.80
2023-03-07T22:27:53.744Z,0.40
2023-03-07T22:30:41.967Z,1.70
2023-03-07T22:33:29.834Z,1.70
2023-03-07T22:36:24.904Z,1.70
2023-03-07T22:39:13.900Z,1.70
2023-03-07T22:42:01.839Z,1.70
2023-03-07T22:44:49.944Z,1.80
2023-03-07T22:47:37.372Z,1.80
2023-03-07T22:50:25.550Z,1.80
2023-03-07T22:53:15.335Z,1.90
2023-03-07T22:56:02.988Z,1.80
2023-03-07T22:58:50.748Z,3.30
2023-03-07T23:01:38.377Z,1.80
2023-03-07T23:04:31.151Z,1.80
2023-03-07T23:07:20.077Z,1.80
2023-03-07T23:10:09.776Z,2.30
2023-03-07T23:12:57.463Z,1.70
2023-03-07T23:15:45.052Z,1.80
2023-03-07T23:18:33.041Z,2.00
2023-03-07T23:21:22.666Z,1.80
2023-03-07T23:24:10.123Z,1.80
2023-03-07T23:26:59.088Z,1.80
2023-03-07T23:29:46.570Z,2.10
2023-03-07T23:32:34.960Z,1.80
2023-03-07T23:35:24.067Z,1.80
2023-03-07T23:38:13.693Z,1.80
2023-03-07T23:41:08.052Z,1.80
2023-03-07T23:43:58.808Z,1.80
2023-03-07T23:46:50.120Z,1.80
2023-03-07T23:49:41.671Z,1.70
2023-03-07T23:52:32.898Z,1.60
2023-03-07T23:55:20.819Z,1.80
2023-03-07T23:58:08.553Z,1.80
